Time;durP1;ratioP1;P1;durP2;ratioP2;P2;SDS_P1;SDS_P2;PMS_P1;PMS_P2;Temp;Humidity;BMP_temperature;BMP_pressure;BME280_temperature;BME280_humidity;BME280_pressure;Samples;Min_cycle;Max_cycle;Signal;HPM_P1;HPM_P2
2024/02/03 00:00:42;;;;;;;3.13;1.20;;;;;;;-145.63;100.00;61273.97;5034056;28;20152;-65
2024/02/03 00:03:09;;;;;;;2.55;1.00;;;;;;;-145.63;100.00;61273.97;5035498;28;20037;-65
2024/02/03 00:05:35;;;;;;;2.97;1.42;;;;;;;-145.63;100.00;61273.97;5030904;28;20030;-65
2024/02/03 00:08:00;;;;;;;4.93;1.45;;;;;;;-145.63;100.00;61273.97;5034020;28;20098;-66
2024/02/03 00:10:27;;;;;;;5.20;1.30;;;;;;;-145.63;100.00;61273.97;5028060;28;20030;-65
2024/02/03 00:12:53;;;;;;;2.58;1.00;;;;;;;-145.63;100.00;61273.97;5025132;28;20045;-66
2024/02/03 00:15:19;;;;;;;4.95;1.08;;;;;;;-145.63;100.00;61273.97;5035713;28;20040;-67
2024/02/03 00:17:44;;;;;;;2.63;1.13;;;;;;;-145.63;100.00;61273.97;5035259;28;20026;-66
2024/02/03 00:20:11;;;;;;;3.92;1.15;;;;;;;-145.63;100.00;61273.97;5020246;28;20029;-67
2024/02/03 00:22:36;;;;;;;6.07;1.88;;;;;;;-145.63;100.00;61273.97;5034685;28;20356;-67
2024/02/03 00:25:02;;;;;;;4.05;1.10;;;;;;;-145.63;100.00;61273.97;5034653;28;20033;-64
2024/02/03 00:27:29;;;;;;;2.65;1.20;;;;;;;-145.63;100.00;61273.97;5035225;28;20071;-66
2024/02/03 00:29:55;;;;;;;4.30;1.58;;;;;;;-145.63;100.00;61273.97;5034346;28;20021;-65
2024/02/03 00:32:20;;;;;;;3.47;1.33;;;;;;;-145.63;100.00;61273.97;5035249;28;20100;-65
2024/02/03 00:34:46;;;;;;;5.72;1.40;;;;;;;-145.63;100.00;61273.97;5034760;28;20030;-65
2024/02/03 00:37:12;;;;;;;2.92;1.33;;;;;;;-145.63;100.00;61273.97;5033080;28;20049;-64
2024/02/03 00:39:42;;;;;;;4.95;1.33;;;;;;;-145.63;100.00;61273.97;5034660;28;20046;-64
2024/02/03 00:42:08;;;;;;;8.13;1.48;;;;;;;-145.63;100.00;61273.97;5034991;28;20073;-66
2024/02/03 00:44:33;;;;;;;3.10;1.30;;;;;;;-145.63;100.00;61273.97;5034823;28;20044;-65
2024/02/03 00:46:59;;;;;;;3.80;1.30;;;;;;;-145.63;100.00;61273.97;5034304;28;20116;-64
2024/02/03 00:49:25;;;;;;;3.25;1.13;;;;;;;-145.63;100.00;61273.97;5031500;28;20052;-65
2024/02/03 00:51:50;;;;;;;3.63;1.40;;;;;;;-145.63;100.00;61273.97;5023481;28;20052;-65
2024/02/03 00:54:16;;;;;;;3.83;1.33;;;;;;;-145.63;100.00;61273.97;5034309;28;20025;-66
2024/02/03 00:56:41;;;;;;;8.55;1.90;;;;;;;-145.63;100.00;61273.97;5034316;28;20516;-67
2024/02/03 00:59:07;;;;;;;4.95;1.10;;;;;;;-145.63;100.00;61273.97;5034050;28;20029;-65
2024/02/03 01:01:33;;;;;;;6.63;1.20;;;;;;;-145.63;100.00;61273.97;5033454;28;20039;-64
2024/02/03 01:03:59;;;;;;;3.03;1.17;;;;;;;-145.63;100.00;61273.97;5033925;28;20035;-65
2024/02/03 01:06:24;;;;;;;3.80;1.10;;;;;;;-145.63;100.00;61273.97;5032802;28;20620;-65
2024/02/03 01:08:50;;;;;;;3.67;1.50;;;;;;;-145.63;100.00;61273.97;5034046;28;20087;-66
2024/02/03 01:11:16;;;;;;;3.70;1.27;;;;;;;-145.63;100.00;61273.97;5028359;28;20393;-65
2024/02/03 01:13:42;;;;;;;4.90;1.40;;;;;;;-145.63;100.00;61273.97;5032306;28;20049;-65
2024/02/03 01:16:08;;;;;;;1.55;0.95;;;;;;;-145.63;100.00;61273.97;5033810;28;20111;-65
2024/02/03 01:18:33;;;;;;;6.25;1.42;;;;;;;-145.63;100.00;61273.97;5034362;28;20451;-64
2024/02/03 01:20:59;;;;;;;5.05;1.30;;;;;;;-145.63;100.00;61273.97;5030353;28;20452;-64
2024/02/03 01:23:25;;;;;;;3.92;1.35;;;;;;;-145.63;100.00;61273.97;5034152;28;20048;-64
2024/02/03 01:25:51;;;;;;;4.43;1.27;;;;;;;-145.63;100.00;61273.97;5033265;28;20044;-64
2024/02/03 01:28:16;;;;;;;4.90;1.27;;;;;;;-145.63;100.00;61273.97;5033734;28;20037;-64
2024/02/03 01:30:42;;;;;;;2.15;1.23;;;;;;;-145.63;100.00;61273.97;5033506;28;20025;-64
2024/02/03 01:33:08;;;;;;;3.58;1.13;;;;;;;-145.63;100.00;61273.97;5034039;28;20025;-64
2024/02/03 01:35:33;;;;;;;5.43;1.52;;;;;;;-145.63;100.00;61273.97;5033758;28;20164;-64
2024/02/03 01:37:59;;;;;;;2.63;0.93;;;;;;;-145.63;100.00;61273.97;5033017;28;20049;-65
2024/02/03 01:40:27;;;;;;;4.78;1.42;;;;;;;-145.63;100.00;61273.97;5032819;28;20060;-66
2024/02/03 01:43:01;;;;;;;5.55;1.40;;;;;;;-145.63;100.00;61273.97;5024092;28;20037;-65
2024/02/03 01:45:27;;;;;;;3.53;1.38;;;;;;;-145.63;100.00;61273.97;5017837;28;20044;-68
2024/02/03 01:47:53;;;;;;;5.22;1.48;;;;;;;-145.63;100.00;61273.97;5032439;28;20032;-66
2024/02/03 01:50:20;;;;;;;3.42;1.30;;;;;;;-145.63;100.00;61273.97;5032617;28;20075;-65
2024/02/03 01:52:47;;;;;;;4.57;1.73;;;;;;;-145.63;100.00;61273.97;5032291;28;20040;-65
2024/02/03 01:55:13;;;;;;;3.17;1.08;;;;;;;-145.63;100.00;61273.97;5032385;28;20040;-65
2024/02/03 01:57:42;;;;;;;4.10;1.10;;;;;;;-145.63;100.00;61273.97;5032602;28;20029;-66
2024/02/03 02:00:10;;;;;;;3.90;1.33;;;;;;;-145.63;100.00;61273.97;5030985;28;20065;-66
2024/02/03 02:02:35;;;;;;;5.05;1.13;;;;;;;-145.63;100.00;61273.97;5032621;28;20025;-67
2024/02/03 02:05:01;;;;;;;5.03;1.50;;;;;;;-145.63;100.00;61273.97;5032505;28;20371;-67
2024/02/03 02:07:28;;;;;;;3.65;1.40;;;;;;;-145.63;100.00;61273.97;5025322;28;20033;-65
2024/02/03 02:09:54;;;;;;;4.53;1.40;;;;;;;-145.63;100.00;61273.97;5030100;28;20025;-66
2024/02/03 02:12:20;;;;;;;6.13;2.00;;;;;;;-145.63;100.00;61273.97;5012743;28;20033;-66
2024/02/03 02:14:46;;;;;;;3.97;1.38;;;;;;;-145.63;100.00;61273.97;5012116;28;20355;-67
2024/02/03 02:17:11;;;;;;;5.22;1.30;;;;;;;-145.63;100.00;61273.97;5031248;28;20083;-66
2024/02/03 02:20:05;;;;;;;2.63;1.20;;;;;;;-145.63;100.00;61273.97;5031097;28;20389;-66
2024/02/03 02:22:32;;;;;;;6.10;1.45;;;;;;;-145.63;100.00;61273.97;5032169;28;20037;-66
2024/02/03 02:24:59;;;;;;;6.18;1.58;;;;;;;-145.63;100.00;61273.97;5031946;28;20031;-66
2024/02/03 02:27:24;;;;;;;5.55;1.45;;;;;;;-145.63;100.00;61273.97;5031937;28;20036;-66
2024/02/03 02:29:50;;;;;;;3.58;1.15;;;;;;;-145.63;100.00;61273.97;5031433;28;20029;-67
2024/02/03 02:32:16;;;;;;;5.35;1.52;;;;;;;-145.63;100.00;61273.97;5032089;28;20122;-66
2024/02/03 02:34:42;;;;;;;3.90;1.40;;;;;;;-145.63;100.00;61273.97;5031962;28;20122;-66
2024/02/03 02:37:08;;;;;;;3.97;1.10;;;;;;;-145.63;100.00;61273.97;4989569;28;1236496;-66
2024/02/03 02:39:34;;;;;;;6.43;1.38;;;;;;;-145.63;100.00;61273.97;5045311;28;20041;-66
2024/02/03 02:41:59;;;;;;;4.20;1.20;;;;;;;-145.63;100.00;61273.97;5047392;28;20032;-66
2024/02/03 02:44:25;;;;;;;3.63;1.80;;;;;;;-145.63;100.00;61273.97;5049950;28;20021;-66
2024/02/03 02:46:51;;;;;;;4.72;1.30;;;;;;;-145.63;100.00;61273.97;5041922;28;20040;-67
2024/02/03 02:49:17;;;;;;;4.82;1.63;;;;;;;-145.63;100.00;61273.97;5033908;28;20025;-66
2024/02/03 02:51:42;;;;;;;3.38;1.15;;;;;;;-145.63;100.00;61273.97;5025697;28;20040;-67
2024/02/03 02:54:08;;;;;;;4.70;1.23;;;;;;;-145.63;100.00;61273.97;5033237;28;20040;-65
2024/02/03 02:56:34;;;;;;;6.72;1.45;;;;;;;-145.63;100.00;61273.97;5032839;28;20025;-66
2024/02/03 02:59:00;;;;;;;4.80;1.45;;;;;;;-145.63;100.00;61273.97;5032427;28;20439;-66
2024/02/03 03:01:25;;;;;;;3.58;1.60;;;;;;;-145.63;100.00;61273.97;5032544;28;20057;-65
2024/02/03 03:03:55;;;;;;;5.70;1.48;;;;;;;-145.63;100.00;61273.97;5031883;28;20040;-66
2024/02/03 03:06:21;;;;;;;5.72;2.17;;;;;;;-145.63;100.00;61273.97;5024725;28;20408;-66
2024/02/03 03:08:46;;;;;;;5.03;1.33;;;;;;;-145.63;100.00;61273.97;5032535;28;20037;-66
2024/02/03 03:11:12;;;;;;;4.82;1.40;;;;;;;-145.63;100.00;61273.97;5045257;28;20109;-66
2024/02/03 03:13:41;;;;;;;3.25;1.40;;;;;;;-145.63;100.00;61273.97;5037918;28;20400;-69
2024/02/03 03:16:08;;;;;;;5.03;1.40;;;;;;;-145.63;100.00;61273.97;5020073;28;20021;-66
2024/02/03 03:18:38;;;;;;;4.88;1.92;;;;;;;-145.63;100.00;61273.97;5025891;28;20549;-67
2024/02/03 03:21:04;;;;;;;4.43;1.63;;;;;;;-145.63;100.00;61273.97;5013304;28;20478;-65
2024/02/03 03:23:29;;;;;;;5.85;1.80;;;;;;;-145.63;100.00;61273.97;5032361;28;20114;-66
2024/02/03 03:25:56;;;;;;;3.65;1.98;;;;;;;-145.63;100.00;61273.97;5031709;28;20104;-65
2024/02/03 03:28:22;;;;;;;5.55;1.85;;;;;;;-145.63;100.00;61273.97;5032237;28;20355;-65
2024/02/03 03:30:48;;;;;;;4.60;1.75;;;;;;;-145.63;100.00;61273.97;5032005;28;20033;-66
2024/02/03 03:33:14;;;;;;;5.57;1.90;;;;;;;-145.63;100.00;61273.97;5032238;28;20462;-66
2024/02/03 03:35:40;;;;;;;6.38;2.08;;;;;;;-145.63;100.00;61273.97;5028792;28;20043;-64
2024/02/03 03:38:06;;;;;;;5.45;1.77;;;;;;;-145.63;100.00;61273.97;5029837;28;20514;-66
2024/02/03 03:40:35;;;;;;;6.57;2.08;;;;;;;-145.63;100.00;61273.97;5032059;28;20156;-65
2024/02/03 03:43:02;;;;;;;6.15;1.90;;;;;;;-145.63;100.00;61273.97;5031993;28;20026;-65
2024/02/03 03:45:28;;;;;;;4.10;1.50;;;;;;;-145.63;100.00;61273.97;5031871;28;20056;-66
2024/02/03 03:47:54;;;;;;;6.07;1.70;;;;;;;-145.63;100.00;61273.97;5031670;28;20116;-65
2024/02/03 03:50:19;;;;;;;3.85;1.63;;;;;;;-145.63;100.00;61273.97;5021464;28;20026;-66
2024/02/03 03:52:45;;;;;;;7.53;1.88;;;;;;;-145.63;100.00;61273.97;5025999;28;20049;-64
2024/02/03 03:55:11;;;;;;;8.50;2.25;;;;;;;-145.63;100.00;61273.97;5032253;28;20041;-65
2024/02/03 03:57:37;;;;;;;3.38;1.88;;;;;;;-145.63;100.00;61273.97;5026992;28;20030;-66
2024/02/03 04:00:09;;;;;;;4.68;1.90;;;;;;;-145.63;100.00;61273.97;5012256;28;20072;-66
2024/02/03 04:02:35;;;;;;;4.90;2.10;;;;;;;-145.63;100.00;61273.97;5031724;28;20037;-66
2024/02/03 04:05:01;;;;;;;5.68;1.88;;;;;;;-145.63;100.00;61273.97;5029614;28;20036;-67
2024/02/03 04:07:26;;;;;;;7.15;2.53;;;;;;;-145.63;100.00;61273.97;5023536;28;20402;-67
2024/02/03 04:09:52;;;;;;;5.97;2.00;;;;;;;-145.63;100.00;61273.97;5033431;28;20033;-68
2024/02/03 04:12:18;;;;;;;4.30;2.10;;;;;;;-145.63;100.00;61273.97;5049544;28;20508;-67
2024/02/03 04:14:46;;;;;;;6.30;2.13;;;;;;;-145.63;100.00;61273.97;5031672;28;20677;-67
2024/02/03 04:17:12;;;;;;;7.38;2.92;;;;;;;-145.63;100.00;61273.97;5031010;28;20678;-66
2024/02/03 04:19:38;;;;;;;6.57;2.15;;;;;;;-145.63;100.00;61273.97;5018029;28;20057;-67
2024/02/03 04:22:04;;;;;;;7.25;2.17;;;;;;;-145.63;100.00;61273.97;5019833;28;20120;-66
2024/02/03 04:24:30;;;;;;;6.13;2.08;;;;;;;-145.63;100.00;61273.97;5031487;28;20499;-66
2024/02/03 04:26:55;;;;;;;6.78;2.20;;;;;;;-145.63;100.00;61273.97;5031091;28;20041;-65
2024/02/03 04:29:21;;;;;;;6.55;2.38;;;;;;;-145.63;100.00;61273.97;5030987;28;20056;-65
2024/02/03 04:31:46;;;;;;;5.13;1.80;;;;;;;-145.63;100.00;61273.97;5034003;28;20030;-66
2024/02/03 04:34:12;;;;;;;5.78;2.30;;;;;;;-145.63;100.00;61273.97;5035212;28;20033;-66
2024/02/03 04:36:38;;;;;;;6.15;2.00;;;;;;;-145.63;100.00;61273.97;5030480;28;20046;-65
2024/02/03 04:39:06;;;;;;;6.15;1.80;;;;;;;-145.63;100.00;61273.97;5013576;28;20144;-66
2024/02/03 04:41:32;;;;;;;6.53;2.17;;;;;;;-145.63;100.00;61273.97;5035000;28;20033;-67
2024/02/03 04:43:57;;;;;;;7.60;1.77;;;;;;;-145.63;100.00;61273.97;5034270;28;20033;-67
2024/02/03 04:46:23;;;;;;;6.43;2.22;;;;;;;-145.63;100.00;61273.97;5035054;28;20033;-66
2024/02/03 04:48:49;;;;;;;5.65;2.13;;;;;;;-145.63;100.00;61273.97;5034253;28;20116;-66
2024/02/03 04:51:15;;;;;;;8.13;2.00;;;;;;;-145.63;100.00;61273.97;5018461;28;20112;-66
2024/02/03 04:53:40;;;;;;;6.10;2.00;;;;;;;-145.63;100.00;61273.97;5034461;28;20069;-64
2024/02/03 04:56:07;;;;;;;9.88;2.35;;;;;;;-145.63;100.00;61273.97;5028079;28;20112;-65
2024/02/03 04:58:33;;;;;;;6.68;2.58;;;;;;;-145.63;100.00;61273.97;5027046;28;20044;-64
2024/02/03 05:01:00;;;;;;;7.03;2.40;;;;;;;-145.63;100.00;61273.97;5034487;28;20029;-65
2024/02/03 05:03:26;;;;;;;5.50;2.25;;;;;;;-145.63;100.00;61273.97;5034412;28;20490;-64
2024/02/03 05:05:52;;;;;;;6.63;2.65;;;;;;;-145.63;100.00;61273.97;5033891;28;20033;-65
2024/02/03 05:08:18;;;;;;;8.48;2.92;;;;;;;-145.63;100.00;61273.97;5014685;28;20030;-65
2024/02/03 05:10:43;;;;;;;9.05;2.80;;;;;;;-145.63;100.00;61273.97;5036699;28;20033;-65
2024/02/03 05:13:09;;;;;;;9.25;2.97;;;;;;;-145.63;100.00;61273.97;5045280;28;20095;-65
2024/02/03 05:15:35;;;;;;;4.93;2.40;;;;;;;-145.63;100.00;61273.97;5034305;28;20064;-66
2024/02/03 05:18:01;;;;;;;7.72;2.85;;;;;;;-145.63;100.00;61273.97;5034034;28;20437;-65
2024/02/03 05:20:27;;;;;;;8.20;2.97;;;;;;;-145.63;100.00;61273.97;5034029;28;20451;-66
2024/02/03 05:22:53;;;;;;;10.48;3.83;;;;;;;-145.63;100.00;61273.97;5033583;28;20065;-66
2024/02/03 05:25:20;;;;;;;9.27;3.47;;;;;;;-145.63;100.00;61273.97;5034220;28;20659;-66
2024/02/03 05:27:45;;;;;;;8.25;4.10;;;;;;;-145.63;100.00;61273.97;5022727;28;20057;-65
2024/02/03 05:30:12;;;;;;;8.18;4.30;;;;;;;-145.63;100.00;61273.97;5033738;28;20069;-65
2024/02/03 05:32:38;;;;;;;8.02;3.83;;;;;;;-145.63;100.00;61273.97;5033978;28;20052;-66
2024/02/03 05:35:04;;;;;;;11.18;4.18;;;;;;;-145.63;100.00;61273.97;5033294;28;20029;-65
2024/02/03 05:37:31;;;;;;;8.05;4.05;;;;;;;-145.63;100.00;61273.97;5033201;28;20111;-66
2024/02/03 05:39:56;;;;;;;7.45;4.07;;;;;;;-145.63;100.00;61273.97;5033378;28;20071;-66
2024/02/03 05:42:23;;;;;;;7.00;4.38;;;;;;;-145.63;100.00;61273.97;5032998;28;20122;-66
2024/02/03 05:44:49;;;;;;;12.18;4.93;;;;;;;-145.63;100.00;61273.97;5015924;28;20077;-65
2024/02/03 05:47:14;;;;;;;9.90;4.93;;;;;;;-145.63;100.00;61273.97;5031474;28;20036;-66
2024/02/03 05:49:41;;;;;;;7.05;4.57;;;;;;;-145.63;100.00;61273.97;5028904;28;20034;-66
2024/02/03 05:52:06;;;;;;;8.85;4.30;;;;;;;-145.63;100.00;61273.97;5022072;28;20021;-66
2024/02/03 05:54:32;;;;;;;7.90;4.28;;;;;;;-145.63;100.00;61273.97;5033510;28;20163;-66
2024/02/03 05:56:58;;;;;;;10.23;4.22;;;;;;;-145.63;100.00;61273.97;5033591;28;20459;-66
2024/02/03 05:59:24;;;;;;;7.10;4.75;;;;;;;-145.63;100.00;61273.97;5033400;28;20064;-64
2024/02/03 06:01:50;;;;;;;10.38;4.40;;;;;;;-145.63;100.00;61273.97;5033214;28;20037;-68
2024/02/03 06:04:16;;;;;;;8.13;4.50;;;;;;;-145.63;100.00;61273.97;5033529;28;20030;-66
2024/02/03 06:06:41;;;;;;;9.85;4.57;;;;;;;-145.63;100.00;61273.97;5028997;28;20465;-67
2024/02/03 06:09:08;;;;;;;11.90;4.82;;;;;;;-145.63;100.00;61273.97;5013729;28;20050;-66
2024/02/03 06:11:34;;;;;;;10.88;4.90;;;;;;;-145.63;100.00;61273.97;5029761;28;20428;-66
2024/02/03 06:13:59;;;;;;;8.25;4.22;;;;;;;-145.63;100.00;61273.97;5033266;28;20116;-68
2024/02/03 06:16:25;;;;;;;6.35;3.72;;;;;;;-145.63;100.00;61273.97;5033386;28;20056;-66
2024/02/03 06:18:51;;;;;;;5.85;3.40;;;;;;;-145.63;100.00;61273.97;5033046;28;20623;-67
2024/02/03 06:21:16;;;;;;;6.70;3.53;;;;;;;-145.63;100.00;61273.97;5033419;28;20474;-67
2024/02/03 06:23:42;;;;;;;9.70;4.25;;;;;;;-145.63;100.00;61273.97;5033399;28;20038;-67
2024/02/03 06:26:09;;;;;;;8.10;3.60;;;;;;;-145.63;100.00;61273.97;5033463;28;20097;-67
2024/02/03 06:28:35;;;;;;;8.10;4.10;;;;;;;-145.63;100.00;61273.97;5033271;28;20038;-68
2024/02/03 06:31:01;;;;;;;10.15;3.95;;;;;;;-145.63;100.00;61273.97;5033124;28;20060;-66
2024/02/03 06:33:27;;;;;;;7.10;4.32;;;;;;;-145.63;100.00;61273.97;5031819;28;20072;-67
2024/02/03 06:35:53;;;;;;;7.38;3.72;;;;;;;-145.63;100.00;61273.97;5032789;28;20036;-67
2024/02/03 06:38:19;;;;;;;6.30;3.53;;;;;;;-145.63;100.00;61273.97;5031432;28;20087;-67
2024/02/03 06:40:45;;;;;;;8.40;3.40;;;;;;;-145.63;100.00;61273.97;5032715;28;20057;-69
2024/02/03 06:43:10;;;;;;;8.35;4.20;;;;;;;-145.63;100.00;61273.97;5031710;28;20021;-66
2024/02/03 06:45:36;;;;;;;8.77;3.33;;;;;;;-145.63;100.00;61273.97;5033434;28;20029;-68
2024/02/03 06:48:02;;;;;;;8.98;3.40;;;;;;;-145.63;100.00;61273.97;5032459;28;20479;-67
2024/02/03 06:50:28;;;;;;;9.13;4.05;;;;;;;-145.63;100.00;61273.97;5021187;28;20050;-68
2024/02/03 06:52:53;;;;;;;5.38;3.10;;;;;;;-145.63;100.00;61273.97;5026720;28;20037;-67
2024/02/03 06:55:19;;;;;;;5.53;3.42;;;;;;;-145.63;100.00;61273.97;5032393;28;20030;-67
2024/02/03 06:57:45;;;;;;;9.55;3.65;;;;;;;-145.63;100.00;61273.97;5032010;28;20088;-67
2024/02/03 07:00:11;;;;;;;7.00;3.13;;;;;;;-145.63;100.00;61273.97;5032470;28;20040;-66
2024/02/03 07:02:37;;;;;;;8.48;3.53;;;;;;;-145.63;100.00;61273.97;5032138;28;20029;-67
2024/02/03 07:05:02;;;;;;;8.30;3.10;;;;;;;-145.63;100.00;61273.97;5031910;28;20030;-66
2024/02/03 07:07:29;;;;;;;8.05;2.67;;;;;;;-145.63;100.00;61273.97;5032713;28;20026;-67
2024/02/03 07:09:58;;;;;;;10.00;3.58;;;;;;;-145.63;100.00;61273.97;5034477;28;20032;-65
2024/02/03 07:12:27;;;;;;;6.60;2.90;;;;;;;-145.63;100.00;61273.97;5050694;28;20064;-67
2024/02/03 07:14:53;;;;;;;7.57;2.80;;;;;;;-145.63;100.00;61273.97;5031881;28;20643;-65
2024/02/03 07:17:18;;;;;;;4.05;2.15;;;;;;;-145.63;100.00;61273.97;5032255;28;20109;-66
2024/02/03 07:19:44;;;;;;;5.53;2.30;;;;;;;-145.63;100.00;61273.97;5031708;28;20071;-67
2024/02/03 07:22:10;;;;;;;6.28;2.65;;;;;;;-145.63;100.00;61273.97;5030948;28;20045;-68
2024/02/03 07:24:39;;;;;;;5.55;2.30;;;;;;;-145.63;100.00;61273.97;5032108;28;20029;-66
2024/02/03 07:27:05;;;;;;;5.75;2.50;;;;;;;-145.63;100.00;61273.97;5030910;28;20022;-67
2024/02/03 07:29:31;;;;;;;4.45;2.55;;;;;;;-145.63;100.00;61273.97;5031872;28;20043;-66
2024/02/03 07:32:00;;;;;;;4.93;2.70;;;;;;;-145.63;100.00;61273.97;5031916;28;20030;-67
2024/02/03 07:34:27;;;;;;;5.85;2.60;;;;;;;-145.63;100.00;61273.97;5031945;28;20026;-66
2024/02/03 07:36:52;;;;;;;9.48;2.85;;;;;;;-145.63;100.00;61273.97;5030507;28;20455;-66
2024/02/03 07:39:18;;;;;;;5.18;2.58;;;;;;;-145.63;100.00;61273.97;5032102;28;20072;-67
2024/02/03 07:41:44;;;;;;;5.20;1.95;;;;;;;-145.63;100.00;61273.97;5031762;28;20504;-66
2024/02/03 07:44:10;;;;;;;8.43;2.33;;;;;;;-145.63;100.00;61273.97;5031990;28;20125;-66
2024/02/03 07:46:38;;;;;;;5.65;2.42;;;;;;;-145.63;100.00;61273.97;5030585;28;20108;-67
2024/02/03 07:49:04;;;;;;;3.22;2.13;;;;;;;-145.63;100.00;61273.97;5031812;28;20079;-63
2024/02/03 07:51:30;;;;;;;6.18;2.42;;;;;;;-145.63;100.00;61273.97;5015284;28;20107;-65
2024/02/03 07:53:56;;;;;;;5.80;2.13;;;;;;;-145.63;100.00;61273.97;5032050;28;20494;-69
2024/02/03 07:56:22;;;;;;;8.82;2.92;;;;;;;-145.63;100.00;61273.97;5031831;28;20025;-68
2024/02/03 07:58:47;;;;;;;3.38;1.98;;;;;;;-145.63;100.00;61273.97;5031638;28;20025;-68
2024/02/03 08:01:13;;;;;;;4.68;2.28;;;;;;;-145.63;100.00;61273.97;5030793;28;20083;-68
2024/02/03 08:03:39;;;;;;;7.93;2.45;;;;;;;-145.63;100.00;61273.97;5031842;28;20037;-68
2024/02/03 08:06:06;;;;;;;3.50;2.00;;;;;;;-145.63;100.00;61273.97;5034161;28;20044;-69
2024/02/03 08:08:32;;;;;;;4.53;2.33;;;;;;;-145.63;100.00;61273.97;5017260;28;20080;-68
2024/02/03 08:10:58;;;;;;;5.05;2.95;;;;;;;-145.63;100.00;61273.97;5029278;28;20044;-67
2024/02/03 08:13:23;;;;;;;4.90;2.22;;;;;;;-145.63;100.00;61273.97;5025081;28;20363;-67
2024/02/03 08:15:49;;;;;;;9.68;3.38;;;;;;;-145.63;100.00;61273.97;5019712;28;20025;-66
2024/02/03 08:18:15;;;;;;;11.15;3.10;;;;;;;-145.63;100.00;61273.97;5034466;28;20033;-67
2024/02/03 08:20:41;;;;;;;7.50;2.50;;;;;;;-145.63;100.00;61273.97;5035425;28;20047;-66
2024/02/03 08:23:06;;;;;;;5.32;2.05;;;;;;;-145.63;100.00;61273.97;5040068;28;20072;-67
2024/02/03 08:25:32;;;;;;;4.82;2.00;;;;;;;-145.63;100.00;61273.97;5039757;28;20382;-66
2024/02/03 08:27:58;;;;;;;5.03;1.95;;;;;;;-145.63;100.00;61273.97;5029680;28;20026;-67
2024/02/03 08:30:23;;;;;;;9.82;2.47;;;;;;;-145.63;100.00;61273.97;5016017;28;20033;-68
2024/02/03 08:32:49;;;;;;;6.60;1.98;;;;;;;-145.63;100.00;61273.97;5035157;28;20049;-68
2024/02/03 08:35:15;;;;;;;7.18;2.60;;;;;;;-145.63;100.00;61273.97;5033750;28;20025;-67
2024/02/03 08:37:40;;;;;;;5.88;2.35;;;;;;;-145.63;100.00;61273.97;5033577;28;20148;-66
2024/02/03 08:40:06;;;;;;;6.13;1.92;;;;;;;-145.63;100.00;61273.97;5034866;28;20058;-69
2024/02/03 08:42:32;;;;;;;9.05;2.45;;;;;;;-145.63;100.00;61273.97;5035081;28;20046;-70
2024/02/03 08:44:58;;;;;;;6.07;2.53;;;;;;;-145.63;100.00;61273.97;5035039;28;20045;-68
2024/02/03 08:47:24;;;;;;;15.77;3.17;;;;;;;-145.63;100.00;61273.97;5034416;28;20041;-70
2024/02/03 08:49:53;;;;;;;4.50;2.00;;;;;;;-145.63;100.00;61273.97;5028117;28;20113;-69
2024/02/03 08:52:19;;;;;;;7.13;2.00;;;;;;;-145.63;100.00;61273.97;5023105;28;20535;-69
2024/02/03 08:54:45;;;;;;;8.57;2.45;;;;;;;-145.63;100.00;61273.97;5034692;28;20112;-70
2024/02/03 08:57:11;;;;;;;4.38;2.00;;;;;;;-145.63;100.00;61273.97;5034929;28;20033;-71
2024/02/03 08:59:37;;;;;;;4.00;2.10;;;;;;;-145.63;100.00;61273.97;5034823;28;20037;-69
2024/02/03 09:02:03;;;;;;;2.72;1.95;;;;;;;-145.63;100.00;61273.97;5033724;28;20038;-71
2024/02/03 09:04:28;;;;;;;3.45;1.67;;;;;;;-145.63;100.00;61273.97;5038535;28;20360;-69
2024/02/03 09:06:54;;;;;;;5.13;2.30;;;;;;;-145.63;100.00;61273.97;5040330;28;20471;-67
2024/02/03 09:09:20;;;;;;;5.20;2.20;;;;;;;-145.63;100.00;61273.97;5041795;28;20104;-68
2024/02/03 09:11:45;;;;;;;3.97;2.00;;;;;;;-145.63;100.00;61273.97;5040989;28;20095;-69
2024/02/03 09:14:11;;;;;;;6.38;2.15;;;;;;;-145.63;100.00;61273.97;5034246;28;20029;-67
2024/02/03 09:16:37;;;;;;;3.13;1.70;;;;;;;-145.63;100.00;61273.97;5034062;28;20033;-67
2024/02/03 09:19:02;;;;;;;8.20;2.55;;;;;;;-145.63;100.00;61273.97;5034681;28;20033;-66
2024/02/03 09:21:28;;;;;;;4.28;1.92;;;;;;;-145.63;100.00;61273.97;5034142;28;20033;-68
2024/02/03 09:23:54;;;;;;;9.40;2.92;;;;;;;-145.63;100.00;61273.97;5034290;28;20076;-68
2024/02/03 09:26:20;;;;;;;6.45;2.45;;;;;;;-145.63;100.00;61273.97;5033817;28;20092;-69
2024/02/03 09:28:46;;;;;;;6.35;2.70;;;;;;;-145.63;100.00;61273.97;5034491;28;20029;-68
2024/02/03 09:31:18;;;;;;;8.88;3.30;;;;;;;-145.63;100.00;61273.97;5034902;28;20344;-71
2024/02/03 09:33:44;;;;;;;8.32;2.45;;;;;;;-145.63;100.00;61273.97;5032732;28;20037;-69
2024/02/03 09:36:09;;;;;;;6.32;2.75;;;;;;;-145.63;100.00;61273.97;5033837;28;20042;-70
2024/02/03 09:38:35;;;;;;;8.40;2.40;;;;;;;-145.63;100.00;61273.97;5032843;28;20038;-69
2024/02/03 09:41:01;;;;;;;5.45;2.65;;;;;;;-145.63;100.00;61273.97;5033533;28;20490;-67
2024/02/03 09:43:33;;;;;;;9.95;4.97;;;;;;;-145.63;100.00;61273.97;5034300;28;20036;-69
2024/02/03 09:46:01;;;;;;;5.85;2.88;;;;;;;-145.63;100.00;61273.97;5023992;28;20420;-69
2024/02/03 09:48:26;;;;;;;6.80;2.95;;;;;;;-145.63;100.00;61273.97;5033791;28;20045;-67
2024/02/03 09:50:52;;;;;;;6.93;3.10;;;;;;;-145.63;100.00;61273.97;5018847;28;20026;-68
2024/02/03 09:53:18;;;;;;;6.93;2.95;;;;;;;-145.63;100.00;61273.97;5045043;28;20096;-68
2024/02/03 09:55:44;;;;;;;5.97;3.25;;;;;;;-145.63;100.00;61273.97;5033687;28;20085;-67
2024/02/03 09:58:10;;;;;;;7.43;2.72;;;;;;;-145.63;100.00;61273.97;5027309;28;20030;-67
2024/02/03 10:00:36;;;;;;;8.10;3.00;;;;;;;-145.63;100.00;61273.97;5017842;28;20385;-67
2024/02/03 10:03:03;;;;;;;5.72;3.30;;;;;;;-145.63;100.00;61273.97;5044898;28;20088;-68
2024/02/03 10:05:30;;;;;;;7.00;2.90;;;;;;;-145.63;100.00;61273.97;5041592;28;20033;-68
2024/02/03 10:08:04;;;;;;;7.97;3.10;;;;;;;-145.63;100.00;61273.97;5028843;28;20470;-68
2024/02/03 10:10:35;;;;;;;7.97;3.50;;;;;;;-145.63;100.00;61273.97;5032439;28;20140;-69
2024/02/03 10:13:04;;;;;;;7.70;3.10;;;;;;;-145.63;100.00;61273.97;5031648;28;20068;-69
2024/02/03 10:15:30;;;;;;;6.25;3.03;;;;;;;-145.63;100.00;61273.97;5032904;28;20036;-69
2024/02/03 10:17:58;;;;;;;6.50;2.83;;;;;;;-145.63;100.00;61273.97;5033039;28;20132;-70
2024/02/03 10:20:25;;;;;;;7.18;2.80;;;;;;;-145.63;100.00;61273.97;5033474;28;20056;-67
2024/02/03 10:22:51;;;;;;;7.22;3.15;;;;;;;-145.63;100.00;61273.97;5033321;28;20076;-69
2024/02/03 10:25:21;;;;;;;8.65;3.75;;;;;;;-145.63;100.00;61273.97;5032474;28;20030;-70
2024/02/03 10:27:46;;;;;;;10.40;3.63;;;;;;;-145.63;100.00;61273.97;5032662;28;20033;-70
2024/02/03 10:30:19;;;;;;;5.95;3.38;;;;;;;-145.63;100.00;61273.97;5032693;28;20025;-67
2024/02/03 10:32:47;;;;;;;8.93;3.20;;;;;;;-145.63;100.00;61273.97;5031662;28;20037;-68
2024/02/03 10:35:12;;;;;;;7.40;3.33;;;;;;;-145.63;100.00;61273.97;5032554;28;20462;-67
2024/02/03 10:37:39;;;;;;;7.53;3.30;;;;;;;-145.63;100.00;61273.97;5032899;28;20088;-69
2024/02/03 10:40:05;;;;;;;5.03;2.75;;;;;;;-145.63;100.00;61273.97;5032651;28;20047;-68
2024/02/03 10:42:37;;;;;;;8.77;4.15;;;;;;;-145.63;100.00;61273.97;5032955;28;20033;-67
2024/02/03 10:45:10;;;;;;;6.15;3.15;;;;;;;-145.63;100.00;61273.97;5032345;28;20049;-67
2024/02/03 10:47:43;;;;;;;13.30;3.75;;;;;;;-145.63;100.00;61273.97;5015383;28;20467;-69
2024/02/03 10:50:12;;;;;;;12.18;4.07;;;;;;;-145.63;100.00;61273.97;5026989;28;20115;-68
2024/02/03 10:52:41;;;;;;;9.05;3.42;;;;;;;-145.63;100.00;61273.97;5026747;28;20076;-67
2024/02/03 10:55:11;;;;;;;7.85;3.42;;;;;;;-145.63;100.00;61273.97;5018209;28;20044;-68
2024/02/03 10:57:38;;;;;;;7.38;2.97;;;;;;;-145.63;100.00;61273.97;5032521;28;20029;-66
2024/02/03 11:00:10;;;;;;;6.28;3.28;;;;;;;-145.63;100.00;61273.97;5027900;28;20065;-66
2024/02/03 11:02:36;;;;;;;;;;;;;;;-145.63;100.00;61273.97;5031021;28;20037;-67
2024/02/03 11:05:02;;;;;;;6.10;3.13;;;;;;;-145.63;100.00;61273.97;5032140;28;19920;-68